Time;durP1;ratioP1;P1;durP2;ratioP2;P2;SDS_P1;SDS_P2;PMS_P1;PMS_P2;Temp;Humidity;BMP_temperature;BMP_pressure;BME280_temperature;BME280_humidity;BME280_pressure;Samples;Min_cycle;Max_cycle;Signal;HPM_P1;HPM_P2
2021/11/28 00:02:13;;;;;;;11.23;4.30;;;5.00;99.90;;;;;;5001898;28;20029;-86
2021/11/28 00:04:39;;;;;;;9.27;4.17;;;5.00;99.90;;;;;;5001516;28;20030;-86
2021/11/28 00:07:09;;;;;;;12.07;4.60;;;5.00;99.90;;;;;;5001479;28;20032;-86
2021/11/28 00:09:58;;;;;;;11.83;4.60;;;5.00;99.90;;;;;;5017258;28;20037;-86
2021/11/28 00:12:37;;;;;;;;;;;4.90;99.90;;;;;;5001777;28;20071;-87
2021/11/28 00:15:10;;;;;;;9.32;4.00;;;4.90;99.90;;;;;;5001620;28;19909;-86
2021/11/28 00:17:36;;;;;;;10.43;4.20;;;5.00;99.90;;;;;;5002145;28;20068;-85
2021/11/28 00:20:04;;;;;;;12.40;4.63;;;4.90;99.90;;;;;;5017403;28;20079;-87
2021/11/28 00:22:30;;;;;;;12.83;4.50;;;4.90;99.90;;;;;;5000975;28;20033;-87
2021/11/28 00:24:56;;;;;;;12.00;4.70;;;4.90;99.90;;;;;;5017675;28;20029;-86
2021/11/28 00:27:22;;;;;;;9.80;4.60;;;4.90;99.90;;;;;;5001253;28;20436;-86
2021/11/28 00:29:48;;;;;;;12.97;4.60;;;4.90;99.90;;;;;;5001701;28;20075;-86
2021/11/28 00:32:14;;;;;;;14.27;4.67;;;4.90;99.90;;;;;;5001353;28;20034;-86
2021/11/28 00:34:40;;;;;;;13.57;5.07;;;4.90;99.90;;;;;;5018240;28;20094;-85
2021/11/28 00:37:08;;;;;;;12.17;4.67;;;4.90;99.90;;;;;;5001492;28;20034;-86
2021/11/28 00:39:33;;;;;;;9.83;4.90;;;4.90;99.90;;;;;;5001543;28;20087;-86
2021/11/28 00:42:00;;;;;;;8.93;4.10;;;4.80;99.90;;;;;;5017657;28;20026;-85
2021/11/28 00:44:26;;;;;;;9.33;4.37;;;4.80;99.90;;;;;;5001210;28;20092;-86
2021/11/28 00:46:52;;;;;;;10.13;5.00;;;4.90;99.90;;;;;;5001535;28;20119;-86
2021/11/28 00:49:22;;;;;;;10.57;4.90;;;4.80;99.90;;;;;;5001256;28;20037;-85
2021/11/28 00:54:14;;;;;;;10.07;4.70;;;4.80;99.90;;;;;;5017794;28;20044;-87
2021/11/28 00:56:40;;;;;;;13.47;5.10;;;4.90;99.90;;;;;;5001094;28;20064;-86
2021/11/28 00:59:06;;;;;;;10.57;4.93;;;4.80;99.90;;;;;;5001768;28;20053;-85
2021/11/28 01:01:35;;;;;;;10.30;4.50;;;4.80;99.90;;;;;;5017778;28;20490;-87
2021/11/28 01:04:02;;;;;;;9.00;4.70;;;4.80;99.90;;;;;;5001576;28;20040;-86
2021/11/28 01:06:28;;;;;;;14.57;4.60;;;4.80;99.90;;;;;;5001260;28;20029;-86
2021/11/28 01:08:54;;;;;;;12.30;4.60;;;4.80;99.90;;;;;;5017316;28;20025;-86
2021/11/28 01:11:22;;;;;;;11.53;5.37;;;4.80;99.90;;;;;;5001289;28;20034;-86
2021/11/28 01:13:48;;;;;;;12.97;5.03;;;4.80;99.90;;;;;;5001094;28;20025;-86
2021/11/28 01:16:14;;;;;;;12.10;4.63;;;4.80;99.90;;;;;;5001702;28;20392;-86
2021/11/28 01:18:40;;;;;;;11.47;4.37;;;4.80;99.90;;;;;;5016950;28;20060;-86
2021/11/28 01:21:06;;;;;;;11.23;5.40;;;4.80;99.90;;;;;;5017202;28;20037;-86
2021/11/28 01:23:32;;;;;;;10.50;4.60;;;4.80;99.90;;;;;;5001040;28;20029;-86
2021/11/28 01:25:59;;;;;;;12.73;4.83;;;4.80;99.90;;;;;;5000844;28;20171;-86
2021/11/28 01:28:25;;;;;;;11.50;4.50;;;4.90;99.90;;;;;;5001010;28;20502;-86
2021/11/28 01:30:51;;;;;;;13.27;4.77;;;4.80;99.90;;;;;;5017409;28;20029;-86
2021/11/28 01:33:17;;;;;;;11.23;4.70;;;4.80;99.90;;;;;;5017144;28;20037;-85
2021/11/28 01:35:43;;;;;;;12.13;5.30;;;4.90;99.90;;;;;;5005286;28;20034;-86
2021/11/28 01:38:09;;;;;;;12.67;5.00;;;4.90;99.90;;;;;;5005725;28;20146;-86
2021/11/28 01:40:36;;;;;;;16.80;5.47;;;4.80;99.90;;;;;;5005474;28;20508;-85
2021/11/28 01:43:07;;;;;;;12.30;5.10;;;4.80;99.90;;;;;;5005788;28;20502;-86
2021/11/28 01:45:35;;;;;;;12.93;5.00;;;4.90;99.90;;;;;;5005961;28;20021;-86
2021/11/28 01:48:04;;;;;;;12.90;5.30;;;4.80;99.90;;;;;;5005604;28;20030;-86
2021/11/28 01:50:34;;;;;;;10.00;4.30;;;4.90;99.90;;;;;;5006449;28;20032;-86
2021/11/28 01:53:01;;;;;;;;;;;4.90;99.90;;;;;;5006361;28;20175;-86
2021/11/28 01:55:31;;;;;;;13.70;4.50;;;4.90;99.90;;;;;;5006920;28;19912;-86
2021/11/28 01:57:58;;;;;;;9.60;4.60;;;4.90;99.90;;;;;;5006476;28;20049;-86
2021/11/28 02:00:39;;;;;;;10.25;4.38;;;4.80;99.90;;;;;;5006860;28;20053;-86
2021/11/28 02:03:06;;;;;;;10.30;4.05;;;4.80;99.90;;;;;;5022704;28;20034;-87
2021/11/28 02:05:32;;;;;;;10.57;4.37;;;4.80;99.90;;;;;;5005925;28;20052;-86
2021/11/28 02:07:58;;;;;;;11.57;4.47;;;4.80;99.90;;;;;;5005925;28;20409;-86
2021/11/28 02:10:26;;;;;;;12.90;5.10;;;4.80;99.90;;;;;;5006221;28;20029;-85
2021/11/28 02:12:52;;;;;;;10.30;4.70;;;4.80;99.90;;;;;;5007419;28;20486;-86
2021/11/28 02:15:19;;;;;;;12.13;4.43;;;4.80;99.90;;;;;;5007224;28;20052;-86
2021/11/28 02:17:52;;;;;;;11.70;4.90;;;4.80;99.90;;;;;;5021646;28;20087;-86
2021/11/28 02:20:21;;;;;;;11.07;4.73;;;4.80;99.90;;;;;;5004928;28;20029;-86
2021/11/28 02:22:49;;;;;;;10.17;4.47;;;4.80;99.90;;;;;;5006667;28;20026;-86
2021/11/28 02:25:15;;;;;;;11.10;4.30;;;4.80;99.90;;;;;;5022915;28;20018;-86
2021/11/28 02:27:42;;;;;;;10.20;4.20;;;4.80;99.90;;;;;;5007065;28;20056;-86
2021/11/28 02:30:10;;;;;;;10.83;4.80;;;4.80;99.90;;;;;;5006418;28;20029;-86
2021/11/28 02:32:39;;;;;;;13.60;4.87;;;4.80;99.90;;;;;;5023201;28;20037;-86
2021/11/28 02:35:05;;;;;;;11.47;4.83;;;4.80;99.90;;;;;;5006107;28;20040;-86
2021/11/28 02:37:31;;;;;;;8.27;3.97;;;4.80;99.90;;;;;;5005531;28;20032;-86
2021/11/28 02:40:02;;;;;;;11.07;5.13;;;4.80;99.90;;;;;;5006922;28;20398;-86
2021/11/28 02:42:28;;;;;;;9.47;4.47;;;4.80;99.90;;;;;;5007806;28;20060;-86
2021/11/28 02:44:54;;;;;;;12.60;5.20;;;4.70;99.90;;;;;;5006880;28;20026;-86
2021/11/28 02:47:21;;;;;;;11.13;4.37;;;4.70;99.90;;;;;;5006933;28;20044;-86
2021/11/28 02:49:47;;;;;;;8.40;4.20;;;4.70;99.90;;;;;;5025541;28;20038;-85
2021/11/28 02:52:14;;;;;;;13.47;5.10;;;4.60;99.90;;;;;;5006331;28;20037;-86
2021/11/28 02:54:41;;;;;;;9.43;4.93;;;4.60;99.90;;;;;;5004922;28;20439;-87
2021/11/28 02:57:10;;;;;;;10.97;4.17;;;4.60;99.90;;;;;;5003807;28;20039;-87
2021/11/28 02:59:36;;;;;;;9.07;4.30;;;4.60;99.90;;;;;;5019022;28;20026;-86
2021/11/28 03:02:02;;;;;;;12.23;4.53;;;4.60;99.90;;;;;;5019409;28;20112;-86
2021/11/28 03:04:42;;;;;;;11.57;4.40;;;4.50;99.90;;;;;;5004529;28;20022;-86
2021/11/28 03:07:13;;;;;;;12.43;4.70;;;4.50;99.90;;;;;;5002881;28;20025;-86
2021/11/28 03:09:39;;;;;;;9.67;4.37;;;4.40;99.90;;;;;;5018869;28;20034;-87
2021/11/28 03:12:05;;;;;;;14.03;4.23;;;4.40;99.90;;;;;;5002909;28;20038;-86
2021/11/28 03:14:31;;;;;;;9.60;4.20;;;4.40;99.90;;;;;;5002841;28;20036;-86
2021/11/28 03:16:57;;;;;;;12.03;3.90;;;4.40;99.90;;;;;;5019220;28;20033;-87
2021/11/28 03:19:22;;;;;;;9.27;4.37;;;4.40;99.90;;;;;;5002349;28;20494;-86
2021/11/28 03:21:49;;;;;;;9.53;4.10;;;4.40;99.90;;;;;;5002682;28;20394;-86
2021/11/28 03:24:15;;;;;;;9.20;4.30;;;4.40;99.90;;;;;;5018816;28;20026;-86
2021/11/28 03:26:43;;;;;;;12.20;4.67;;;4.30;99.90;;;;;;5002583;28;20394;-87
2021/11/28 03:29:14;;;;;;;12.10;4.40;;;4.30;99.90;;;;;;5002774;28;20030;-86
2021/11/28 03:32:07;;;;;;;11.90;4.43;;;4.30;99.90;;;;;;5019626;28;20033;-86
2021/11/28 03:34:47;;;;;;;12.03;5.47;;;4.30;99.90;;;;;;5021855;28;20037;-87
2021/11/28 03:37:18;;;;;;;8.83;4.50;;;4.30;99.90;;;;;;5003515;28;20037;-86
2021/11/28 03:39:43;;;;;;;10.03;4.50;;;4.30;99.90;;;;;;5019204;28;20424;-87
2021/11/28 03:42:10;;;;;;;11.07;4.53;;;4.30;99.90;;;;;;5002868;28;20059;-86
2021/11/28 03:44:40;;;;;;;10.80;4.10;;;4.20;99.90;;;;;;5003879;28;20029;-87
2021/11/28 03:47:10;;;;;;;11.67;4.10;;;4.20;99.90;;;;;;5004921;28;20486;-86
2021/11/28 03:49:36;;;;;;;12.80;4.30;;;4.20;99.90;;;;;;5019907;28;20034;-86
2021/11/28 03:52:03;;;;;;;11.37;4.00;;;4.20;99.90;;;;;;5003167;28;20044;-87
2021/11/28 03:54:30;;;;;;;9.53;3.90;;;4.20;99.90;;;;;;5004847;28;20065;-86
2021/11/28 03:56:56;;;;;;;9.03;4.30;;;4.20;99.90;;;;;;5003551;28;20025;-86
2021/11/28 03:59:24;;;;;;;11.98;4.10;;;4.30;99.90;;;;;;5003534;28;20490;-86
2021/11/28 04:01:50;;;;;;;12.03;4.13;;;4.20;99.90;;;;;;5020399;28;20040;-86
2021/11/28 04:04:17;;;;;;;7.53;3.87;;;4.20;99.90;;;;;;5004283;28;20029;-86
2021/11/28 04:07:02;;;;;;;9.33;3.90;;;4.20;99.90;;;;;;5024074;28;20044;-86
2021/11/28 04:09:29;;;;;;;9.70;4.43;;;4.20;99.90;;;;;;5004659;28;20034;-86
2021/11/28 04:11:56;;;;;;;9.43;4.33;;;4.20;99.90;;;;;;5004822;28;20034;-86
2021/11/28 04:14:22;;;;;;;8.80;4.30;;;4.20;99.90;;;;;;5003786;28;20032;-86
2021/11/28 04:16:48;;;;;;;10.57;4.50;;;4.20;99.90;;;;;;5021411;28;20033;-86
2021/11/28 04:19:14;;;;;;;10.70;4.33;;;4.20;99.90;;;;;;5004106;28;20402;-86
2021/11/28 04:21:45;;;;;;;;;;;4.20;99.90;;;;;;5020975;28;20021;-86
2021/11/28 04:24:12;;;;;;;9.27;4.27;;;4.20;99.90;;;;;;5004466;28;20278;-86
2021/11/28 04:26:39;;;;;;;11.27;4.13;;;4.20;99.90;;;;;;5004118;28;20032;-86
2021/11/28 04:29:06;;;;;;;10.80;4.27;;;4.20;99.90;;;;;;5003543;28;20116;-86
2021/11/28 04:31:33;;;;;;;9.40;4.13;;;4.20;99.90;;;;;;5021031;28;20033;-87
2021/11/28 04:33:59;;;;;;;9.50;3.83;;;4.20;99.90;;;;;;5004427;28;20025;-87
2021/11/28 04:36:26;;;;;;;8.60;4.20;;;4.20;99.90;;;;;;5004494;28;20079;-86
2021/11/28 04:38:52;;;;;;;9.73;4.03;;;4.20;99.90;;;;;;5004590;28;20425;-86
2021/11/28 04:41:18;;;;;;;8.77;3.90;;;4.20;99.90;;;;;;5004633;28;20132;-85
2021/11/28 04:43:52;;;;;;;7.87;4.00;;;4.30;99.90;;;;;;5021576;28;20048;-86
2021/11/28 04:46:18;;;;;;;7.97;3.77;;;4.30;99.90;;;;;;5004340;28;20029;-86
2021/11/28 04:48:44;;;;;;;9.13;3.87;;;4.30;99.90;;;;;;5020961;28;20036;-86
2021/11/28 04:51:21;;;;;;;8.73;4.03;;;4.20;99.90;;;;;;5006451;28;20025;-86
2021/11/28 04:53:47;;;;;;;8.37;3.93;;;4.20;99.90;;;;;;5021024;23;20065;-86
2021/11/28 04:56:12;;;;;;;8.00;4.00;;;4.20;99.90;;;;;;5014828;28;20091;-87
2021/11/28 04:58:38;;;;;;;9.90;4.43;;;4.20;99.90;;;;;;5030457;28;20176;-86
2021/11/28 05:01:04;;;;;;;10.73;4.00;;;4.10;99.90;;;;;;5014520;28;20091;-87
2021/11/28 05:03:30;;;;;;;7.40;4.00;;;4.20;99.90;;;;;;5014667;28;20033;-87
2021/11/28 05:06:20;;;;;;;9.50;4.50;;;4.10;99.90;;;;;;5021384;28;20041;-87
2021/11/28 05:09:07;;;;;;;8.67;3.83;;;4.20;99.90;;;;;;5016165;28;20049;-87
2021/11/28 05:11:34;;;;;;;9.33;4.00;;;4.30;99.90;;;;;;5014548;28;20108;-87
2021/11/28 05:14:00;;;;;;;7.83;4.10;;;4.30;99.90;;;;;;5014516;28;20461;-87
2021/11/28 05:16:27;;;;;;;11.00;4.17;;;4.30;99.90;;;;;;4998278;28;20032;-87
2021/11/28 05:19:10;;;;;;;8.97;4.60;;;4.30;99.90;;;;;;4999874;28;20702;-86
2021/11/28 05:22:01;;;;;;;9.05;3.95;;;4.30;99.90;;;;;;5031860;28;20060;-87
2021/11/28 05:24:30;;;;;;;8.23;4.60;;;4.30;99.90;;;;;;5014341;28;20548;-87
2021/11/28 05:26:57;;;;;;;10.03;4.40;;;4.40;99.90;;;;;;4998200;28;20040;-87
2021/11/28 05:29:23;;;;;;;8.57;4.20;;;4.40;99.90;;;;;;4997334;28;20026;-87
2021/11/28 05:31:48;;;;;;;7.93;4.63;;;4.40;99.90;;;;;;4997825;28;20041;-87
2021/11/28 05:34:33;;;;;;;8.60;4.00;;;4.40;99.90;;;;;;5017307;28;20044;-87
2021/11/28 05:37:19;;;;;;;9.87;4.30;;;4.50;99.90;;;;;;5031793;28;20037;-86
2021/11/28 05:39:48;;;;;;;10.73;4.50;;;4.50;99.90;;;;;;4997679;28;20383;-86
2021/11/28 05:42:14;;;;;;;7.93;4.20;;;4.50;99.90;;;;;;5014157;28;20084;-87
2021/11/28 05:44:41;;;;;;;8.20;4.30;;;4.50;99.90;;;;;;4997989;28;20026;-86
2021/11/28 05:47:30;;;;;;;10.13;4.70;;;4.40;99.90;;;;;;5020655;28;20030;-86
2021/11/28 05:50:08;;;;;;;12.13;4.40;;;4.40;99.90;;;;;;5015835;28;20040;-87
2021/11/28 05:52:40;;;;;;;10.27;4.30;;;4.40;99.90;;;;;;4998507;28;20521;-87
2021/11/28 05:55:08;;;;;;;9.83;4.33;;;4.40;99.90;;;;;;5014430;28;20397;-87
2021/11/28 05:57:34;;;;;;;12.57;4.60;;;4.50;99.90;;;;;;4997426;28;20029;-86
2021/11/28 06:00:01;;;;;;;8.50;4.50;;;4.40;99.90;;;;;;4997679;28;20374;-87
2021/11/28 06:02:26;;;;;;;9.20;4.67;;;4.40;99.90;;;;;;4998054;28;20088;-86
2021/11/28 06:05:13;;;;;;;9.70;4.57;;;4.40;99.90;;;;;;5017095;28;20057;-87
2021/11/28 06:08:05;;;;;;;9.93;4.57;;;4.40;99.90;;;;;;5008801;28;20033;-86
2021/11/28 06:10:32;;;;;;;12.63;4.10;;;4.30;99.90;;;;;;5015093;28;20034;-87
2021/11/28 06:12:58;;;;;;;8.43;4.20;;;4.30;99.90;;;;;;4998626;28;20033;-86
2021/11/28 06:15:23;;;;;;;8.80;4.00;;;4.40;99.90;;;;;;4997574;28;20029;-87
2021/11/28 06:18:10;;;;;;;9.33;4.20;;;4.40;99.90;;;;;;5016392;28;20057;-86
2021/11/28 06:21:11;;;;;;;10.53;4.20;;;4.30;99.90;;;;;;4987974;28;20034;-87
2021/11/28 06:23:42;;;;;;;9.23;4.43;;;4.30;99.90;;;;;;5017437;28;20084;-86
2021/11/28 06:26:08;;;;;;;8.50;4.30;;;4.20;99.90;;;;;;5017343;28;20436;-87
2021/11/28 06:28:34;;;;;;;9.67;4.17;;;4.20;99.90;;;;;;5016814;28;20036;-87
2021/11/28 06:31:00;;;;;;;7.63;4.10;;;4.20;99.90;;;;;;5000917;28;20463;-87
2021/11/28 06:33:46;;;;;;;10.50;4.20;;;4.20;99.90;;;;;;5019582;28;20038;-87
2021/11/28 06:36:35;;;;;;;9.03;4.80;;;4.30;99.90;;;;;;5006418;28;20046;-87
2021/11/28 06:39:03;;;;;;;8.47;3.93;;;4.40;99.90;;;;;;5016999;28;20645;-86
2021/11/28 06:41:52;;;;;;;9.17;3.97;;;4.30;99.90;;;;;;5009926;28;20281;-86
2021/11/28 06:44:20;;;;;;;7.70;4.20;;;4.30;99.90;;;;;;5000797;28;20271;-87
2021/11/28 06:46:46;;;;;;;10.93;5.07;;;4.30;99.90;;;;;;5000769;28;20500;-87
2021/11/28 06:49:12;;;;;;;8.77;4.00;;;4.30;99.90;;;;;;5016349;28;20061;-87
2021/11/28 06:51:58;;;;;;;7.47;3.77;;;4.30;99.90;;;;;;5005946;28;20045;-87
2021/11/28 06:54:44;;;;;;;9.70;3.80;;;4.20;99.90;;;;;;5034092;28;20099;-87
2021/11/28 06:57:10;;;;;;;10.00;4.27;;;4.20;99.90;;;;;;5017117;28;20393;-87
2021/11/28 06:59:36;;;;;;;8.70;4.33;;;4.20;99.90;;;;;;4999913;28;20021;-87
2021/11/28 07:02:03;;;;;;;12.47;4.33;;;4.20;99.90;;;;;;5016612;28;20029;-87
2021/11/28 07:04:47;;;;;;;11.00;4.23;;;4.20;99.90;;;;;;5019410;28;20478;-87
2021/11/28 07:07:26;;;;;;;9.33;4.63;;;4.20;99.90;;;;;;5001820;28;20034;-87
2021/11/28 07:10:00;;;;;;;7.67;4.10;;;4.20;99.90;;;;;;5001488;28;20052;-87
2021/11/28 07:12:26;;;;;;;11.87;4.23;;;4.20;99.90;;;;;;5016578;28;20030;-87
2021/11/28 07:14:52;;;;;;;7.80;4.30;;;4.20;99.90;;;;;;5000174;28;20485;-87
2021/11/28 07:17:22;;;;;;;9.07;4.50;;;4.20;99.90;;;;;;5000549;28;20083;-87
2021/11/28 07:19:49;;;;;;;8.77;4.37;;;4.20;99.90;;;;;;5015567;28;20040;-87
2021/11/28 07:22:15;;;;;;;10.43;4.57;;;4.20;99.90;;;;;;5016534;28;20394;-86
2021/11/28 07:24:42;;;;;;;9.37;4.37;;;4.20;99.90;;;;;;4999981;28;20021;-86
2021/11/28 07:27:09;;;;;;;9.13;4.40;;;4.20;99.90;;;;;;4999907;28;20504;-87
2021/11/28 07:29:35;;;;;;;8.47;4.33;;;4.20;99.90;;;;;;5015359;28;20041;-87
2021/11/28 07:32:01;;;;;;;10.60;5.07;;;4.20;99.90;;;;;;4998658;28;20033;-87
2021/11/28 07:34:45;;;;;;;9.33;4.47;;;4.20;99.90;;;;;;5019165;28;20044;-87
2021/11/28 07:37:37;;;;;;;9.93;4.67;;;4.20;99.90;;;;;;5015161;28;20033;-87
2021/11/28 07:40:04;;;;;;;8.67;4.47;;;4.20;99.90;;;;;;4999533;28;20383;-87
2021/11/28 07:42:32;;;;;;;8.48;4.30;;;4.20;99.90;;;;;;5015745;28;20030;-86
2021/11/28 07:44:58;;;;;;;9.67;4.77;;;4.20;99.90;;;;;;5033877;28;20021;-87
2021/11/28 07:47:42;;;;;;;9.80;4.70;;;4.20;99.90;;;;;;5018052;28;20048;-87
2021/11/28 07:50:21;;;;;;;9.33;4.70;;;4.20;99.90;;;;;;5001167;28;20044;-87
2021/11/28 07:52:48;;;;;;;8.73;4.83;;;4.20;99.90;;;;;;5015537;28;20041;-87
2021/11/28 07:55:21;;;;;;;12.97;5.20;;;4.20;99.90;;;;;;5000389;28;20037;-87
2021/11/28 07:58:07;;;;;;;9.87;5.00;;;4.30;99.90;;;;;;5004391;28;20124;-87
2021/11/28 08:00:34;;;;;;;10.00;4.83;;;4.30;99.90;;;;;;5033864;28;20104;-87
2021/11/28 08:03:08;;;;;;;11.13;5.07;;;4.30;99.90;;;;;;5000815;28;20045;-87
2021/11/28 08:05:57;;;;;;;9.50;4.90;;;4.30;99.90;;;;;;5019009;28;20071;-87
2021/11/28 08:08:32;;;;;;;8.63;5.00;;;4.30;99.90;;;;;;5015398;28;20029;-87
2021/11/28 08:11:10;;;;;;;11.80;4.80;;;4.30;99.90;;;;;;5001142;28;20517;-87
2021/11/28 08:13:36;;;;;;;10.27;4.70;;;4.30;99.90;;;;;;4999532;28;20056;-86
2021/11/28 08:16:02;;;;;;;11.37;5.87;;;4.30;99.90;;;;;;5015804;28;20038;-87
2021/11/28 08:18:28;;;;;;;10.23;4.63;;;4.30;99.90;;;;;;5014897;28;20037;-86
2021/11/28 08:20:55;;;;;;;10.73;5.17;;;4.40;99.90;;;;;;4998376;28;20537;-87
2021/11/28 08:23:20;;;;;;;9.90;5.07;;;4.40;99.90;;;;;;4998769;28;20029;-86
2021/11/28 08:25:46;;;;;;;11.97;5.07;;;4.30;99.90;;;;;;5015199;28;20398;-87
2021/11/28 08:28:12;;;;;;;10.13;5.03;;;4.30;99.90;;;;;;4998149;28;20036;-87
2021/11/28 08:30:39;;;;;;;8.83;5.30;;;4.40;99.90;;;;;;5014753;28;20033;-87
2021/11/28 08:33:06;;;;;;;11.20;5.30;;;4.40;99.90;;;;;;5015211;28;20053;-86
2021/11/28 08:35:50;;;;;;;10.07;5.17;;;4.40;99.90;;;;;;5032897;28;20060;-87
2021/11/28 08:38:16;;;;;;;10.30;4.90;;;4.40;99.90;;;;;;4998105;28;20026;-86
2021/11/28 08:40:43;;;;;;;11.90;5.00;;;4.50;99.90;;;;;;5015225;28;20025;-87
2021/11/28 08:43:09;;;;;;;12.17;5.17;;;4.50;99.90;;;;;;4998548;28;20367;-87
2021/11/28 08:45:36;;;;;;;9.50;4.90;;;4.50;99.90;;;;;;4998484;28;20033;-87
2021/11/28 08:48:03;;;;;;;13.43;5.90;;;4.50;99.90;;;;;;4998052;28;20025;-86
2021/11/28 08:50:29;;;;;;;13.00;5.30;;;4.60;99.90;;;;;;5014678;28;20113;-87
2021/11/28 08:52:55;;;;;;;9.30;5.20;;;4.60;99.90;;;;;;4998186;28;20069;-86
2021/11/28 08:55:21;;;;;;;9.50;5.10;;;4.70;99.90;;;;;;4998344;28;20083;-87
2021/11/28 08:57:47;;;;;;;12.67;6.00;;;4.70;99.90;;;;;;5014125;28;20033;-87
2021/11/28 09:00:15;;;;;;;13.27;5.30;;;4.80;99.90;;;;;;4998001;28;20104;-87
2021/11/28 09:02:41;;;;;;;10.17;5.33;;;4.80;99.90;;;;;;5014510;28;20120;-87
2021/11/28 09:05:07;;;;;;;12.07;5.57;;;4.90;99.90;;;;;;4998299;28;20057;-87
2021/11/28 09:07:33;;;;;;;11.60;5.50;;;4.90;99.90;;;;;;5031716;28;20079;-86
2021/11/28 09:10:00;;;;;;;9.77;5.50;;;5.00;99.90;;;;;;4998174;28;20055;-87
2021/11/28 09:12:26;;;;;;;13.17;5.10;;;5.00;99.90;;;;;;5014454;28;20033;-87
2021/11/28 09:14:52;;;;;;;11.90;6.10;;;4.90;99.90;;;;;;4998054;28;20033;-87
2021/11/28 09:17:18;;;;;;;11.13;6.73;;;5.00;99.90;;;;;;5014522;28;20099;-87
2021/11/28 09:20:04;;;;;;;11.13;6.30;;;5.00;99.90;;;;;;4997294;28;20569;-87
2021/11/28 09:25:18;;;;;;;13.57;7.80;;;5.00;99.90;;;;;;5014413;28;20034;-86
2021/11/28 09:27:48;;;;;;;13.17;7.97;;;5.00;99.90;;;;;;4997382;28;20032;-87
2021/11/28 09:30:17;;;;;;;13.73;8.13;;;5.00;99.90;;;;;;5014329;28;20096;-87
2021/11/28 09:32:44;;;;;;;17.10;9.27;;;5.00;99.90;;;;;;5014219;28;20382;-86
2021/11/28 09:35:10;;;;;;;14.13;9.03;;;5.00;99.90;;;;;;4997913;28;20045;-87
2021/11/28 09:37:36;;;;;;;16.70;9.60;;;5.00;99.90;;;;;;5031469;28;20033;-86
2021/11/28 09:40:04;;;;;;;15.67;9.17;;;5.00;99.90;;;;;;4997765;28;20041;-86
2021/11/28 09:42:35;;;;;;;18.63;9.50;;;5.00;99.90;;;;;;4997820;28;20025;-86
2021/11/28 09:45:02;;;;;;;18.37;10.53;;;5.10;99.90;;;;;;5014285;28;20030;-86
2021/11/28 09:47:30;;;;;;;17.63;9.77;;;5.10;99.90;;;;;;4997491;28;20032;-87
2021/11/28 09:49:57;;;;;;;18.75;10.45;;;5.10;99.90;;;;;;4997711;28;20037;-86
2021/11/28 09:52:26;;;;;;;18.03;9.57;;;5.10;99.90;;;;;;5031752;28;20029;-87
2021/11/28 09:54:57;;;;;;;15.83;9.93;;;5.10;99.90;;;;;;5014125;28;20087;-86
2021/11/28 09:57:23;;;;;;;16.67;9.20;;;5.00;99.90;;;;;;5035795;28;20029;-86
2021/11/28 09:59:51;;;;;;;16.87;10.00;;;5.10;99.90;;;;;;5017327;28;20444;-86
2021/11/28 10:02:21;;;;;;;20.47;11.17;;;5.10;99.90;;;;;;5001534;28;20029;-87
2021/11/28 10:04:50;;;;;;;18.23;10.77;;;5.10;99.90;;;;;;5017852;28;20486;-86
2021/11/28 10:07:16;;;;;;;17.50;10.20;;;5.20;99.90;;;;;;5017720;28;20080;-86
2021/11/28 10:09:43;;;;;;;20.17;10.27;;;5.20;99.90;;;;;;5000831;28;20073;-87
2021/11/28 10:12:15;;;;;;;20.90;10.97;;;5.20;99.90;;;;;;5001558;28;20088;-87
2021/11/28 10:14:47;;;;;;;19.77;10.60;;;5.20;99.90;;;;;;5017492;28;20037;-87
2021/11/28 10:17:17;;;;;;;20.33;11.10;;;5.20;99.90;;;;;;5001409;28;20033;-87
2021/11/28 10:19:43;;;;;;;20.63;11.33;;;5.30;99.90;;;;;;5000406;28;20079;-86
2021/11/28 10:22:09;;;;;;;18.40;10.57;;;5.30;99.90;;;;;;5001231;28;20420;-87
2021/11/28 10:24:35;;;;;;;20.87;11.10;;;5.30;99.90;;;;;;5001364;28;20108;-87
2021/11/28 10:27:08;;;;;;;21.17;11.13;;;5.40;99.90;;;;;;5001320;28;20029;-86
2021/11/28 10:29:41;;;;;;;23.73;13.20;;;5.30;99.90;;;;;;5016823;28;20026;-87
2021/11/28 10:32:10;;;;;;;25.47;13.37;;;5.40;99.90;;;;;;5017385;28;20382;-87
2021/11/28 10:34:43;;;;;;;27.67;14.95;;;5.40;99.90;;;;;;5001157;28;20416;-86
2021/11/28 10:37:17;;;;;;;25.30;14.07;;;5.40;99.90;;;;;;5035323;28;20079;-87
2021/11/28 10:39:47;;;;;;;29.07;14.73;;;5.50;99.90;;;;;;5017050;28;20029;-86
2021/11/28 10:42:25;;;;;;;28.07;14.80;;;5.50;99.90;;;;;;5001122;28;20033;-86
2021/11/28 10:45:15;;;;;;;25.93;14.10;;;5.50;99.90;;;;;;5001355;28;20030;-87
2021/11/28 10:47:53;;;;;;;26.80;14.27;;;5.60;99.90;;;;;;5035131;28;20033;-86
2021/11/28 10:50:28;;;;;;;29.37;14.53;;;5.70;99.90;;;;;;5016963;28;20037;-87
2021/11/28 10:53:08;;;;;;;29.63;16.33;;;5.70;99.90;;;;;;5001562;28;20429;-86
2021/11/28 10:55:39;;;;;;;32.17;15.20;;;5.60;99.90;;;;;;5001142;28;20509;-86
2021/11/28 10:58:08;;;;;;;30.43;15.97;;;5.60;99.90;;;;;;5017377;28;20033;-86
2021/11/28 11:00:59;;;;;;;30.17;16.37;;;5.60;99.90;;;;;;5017688;28;20033;-86
2021/11/28 11:03:52;;;;;;;31.33;15.57;;;5.70;99.90;;;;;;4991175;28;20037;-86
2021/11/28 11:06:25;;;;;;;30.73;15.83;;;5.70;99.90;;;;;;5013463;28;20375;-86
2021/11/28 11:09:11;;;;;;;29.67;15.67;;;5.80;99.90;;;;;;4999777;28;20034;-86
2021/11/28 11:11:37;;;;;;;26.80;14.23;;;5.80;99.90;;;;;;4986722;28;20041;-86
2021/11/28 11:14:04;;;;;;;28.53;14.03;;;5.90;99.90;;;;;;5017216;28;20087;-86
2021/11/28 11:16:40;;;;;;;25.30;14.93;;;5.90;99.90;;;;;;5017106;28;20064;-86
2021/11/28 11:19:48;;;;;;;25.40;14.53;;;6.00;99.90;;;;;;5034202;28;20029;-86
2021/11/28 11:22:18;;;;;;;28.63;15.17;;;6.00;99.90;;;;;;5017042;28;20036;-86
2021/11/28 11:24:51;;;;;;;29.93;16.00;;;6.00;99.90;;;;;;5001034;28;20033;-86
2021/11/28 11:27:33;;;;;;;33.00;16.60;;;6.00;99.90;;;;;;5000773;28;20116;-86
2021/11/28 11:30:01;;;;;;;28.67;15.80;;;6.00;99.90;;;;;;5000492;28;20040;-86
2021/11/28 11:32:49;;;;;;;25.87;14.70;;;6.10;99.90;;;;;;5000827;28;20086;-86
2021/11/28 11:35:21;;;;;;;27.50;14.90;;;6.10;99.90;;;;;;5017172;28;20030;-86
2021/11/28 11:37:49;;;;;;;32.73;18.57;;;6.00;99.90;;;;;;5000060;28;20029;-87
2021/11/28 11:40:17;;;;;;;35.07;18.63;;;6.00;99.90;;;;;;5017206;28;20033;-86
2021/11/28 11:42:45;;;;;;;32.57;18.60;;;5.90;99.90;;;;;;4999968;28;20402;-86
2021/11/28 11:45:14;;;;;;;31.03;17.30;;;5.90;99.90;;;;;;5016352;28;20029;-86
2021/11/28 11:47:41;;;;;;;31.70;17.98;;;5.80;99.90;;;;;;4999213;28;20026;-86
2021/11/28 11:50:09;;;;;;;32.67;18.17;;;5.70;99.90;;;;;;5016253;28;20449;-86
2021/11/28 11:52:37;;;;;;;33.80;18.77;;;5.80;99.90;;;;;;5000144;28;20029;-86
2021/11/28 11:55:13;;;;;;;31.73;18.77;;;5.70;99.90;;;;;;5016176;28;20040;-86
2021/11/28 11:57:43;;;;;;;28.10;16.20;;;5.70;99.90;;;;;;4999709;28;20022;-87
2021/11/28 12:00:20;;;;;;;28.48;15.45;;;5.60;99.90;;;;;;5015815;28;20501;-86
2021/11/28 12:02:50;;;;;;;29.07;15.40;;;5.60;99.90;;;;;;5016570;28;20435;-86
2021/11/28 12:05:25;;;;;;;30.23;16.03;;;5.50;99.90;;;;;;5000070;28;20032;-86
2021/11/28 12:07:54;;;;;;;27.40;14.70;;;5.50;99.90;;;;;;4999637;28;20108;-85
2021/11/28 12:10:47;;;;;;;29.97;15.57;;;5.40;99.90;;;;;;5016084;28;20040;-86
2021/11/28 12:13:34;;;;;;;27.93;15.43;;;5.40;99.90;;;;;;4999545;28;20035;-86
2021/11/28 12:16:03;;;;;;;26.27;14.00;;;5.50;99.90;;;;;;4999795;28;20080;-85
2021/11/28 12:18:34;;;;;;;24.17;12.77;;;5.50;99.90;;;;;;5015163;28;20104;-86
2021/11/28 12:21:06;;;;;;;24.17;12.87;;;5.50;99.90;;;;;;5016909;28;20031;-86
2021/11/28 12:24:11;;;;;;;24.03;12.87;;;5.60;99.90;;;;;;5017257;28;20108;-86
2021/11/28 12:26:38;;;;;;;19.73;11.70;;;5.60;99.90;;;;;;5000925;28;20087;-87
2021/11/28 12:29:10;;;;;;;21.70;11.47;;;5.50;99.90;;;;;;4999200;28;20084;-86
2021/11/28 12:31:43;;;;;;;22.57;11.70;;;5.50;99.90;;;;;;4999434;28;20033;-86
2021/11/28 12:34:11;;;;;;;23.53;11.57;;;5.50;99.90;;;;;;4999445;28;20121;-87
2021/11/28 12:36:43;;;;;;;25.47;12.03;;;5.50;99.90;;;;;;5015795;28;20498;-86
2021/11/28 12:39:21;;;;;;;19.60;11.60;;;5.60;99.90;;;;;;5015196;28;20084;-86
2021/11/28 12:44:22;;;;;;;20.30;11.83;;;5.80;99.90;;;;;;5015704;28;20033;-86
2021/11/28 12:46:52;;;;;;;21.87;12.00;;;5.80;99.90;;;;;;4999543;28;20026;-86
2021/11/28 12:49:56;;;;;;;20.13;12.03;;;5.80;99.90;;;;;;5033097;28;20124;-86
2021/11/28 12:52:25;;;;;;;22.30;12.07;;;5.70;99.90;;;;;;4999262;28;20033;-86
2021/11/28 12:55:07;;;;;;;21.67;11.95;;;5.70;99.90;;;;;;5015704;28;20044;-86
2021/11/28 12:57:34;;;;;;;22.17;12.53;;;5.70;99.90;;;;;;4998585;28;20037;-88
2021/11/28 13:00:25;;;;;;;21.17;11.40;;;5.70;99.90;;;;;;4999008;28;20037;-86
2021/11/28 13:02:58;;;;;;;20.53;11.40;;;5.80;99.90;;;;;;5015687;28;20022;-86
2021/11/28 13:05:34;;;;;;;21.53;11.10;;;5.80;99.90;;;;;;5015403;28;20029;-86
2021/11/28 13:08:04;;;;;;;19.20;11.63;;;5.80;99.90;;;;;;4998287;28;20091;-87
2021/11/28 13:10:31;;;;;;;20.03;11.93;;;5.80;99.90;;;;;;5015783;28;20030;-86
2021/11/28 13:13:04;;;;;;;24.00;11.83;;;5.80;99.90;;;;;;5000343;28;20030;-85
2021/11/28 13:15:33;;;;;;;21.03;12.00;;;5.70;99.90;;;;;;5016600;28;20478;-85